createdAt,value
2019-05-01T00:00:16.005Z,10.82
2019-05-01T00:01:09.628Z,10.84
2019-05-01T00:02:09.549Z,10.86
2019-05-01T00:03:09.470Z,10.87
2019-05-01T00:04:09.383Z,10.86
2019-05-01T00:05:09.302Z,10.79
2019-05-01T00:06:09.221Z,10.69
2019-05-01T00:07:09.142Z,10.74
2019-05-01T00:08:09.058Z,10.76
2019-05-01T00:09:08.977Z,10.72
2019-05-01T00:10:08.891Z,10.82
2019-05-01T00:11:08.807Z,10.86
2019-05-01T00:12:08.724Z,10.87
2019-05-01T00:13:08.642Z,10.79
2019-05-01T00:14:08.559Z,10.87
2019-05-01T00:15:08.479Z,10.81
2019-05-01T00:16:08.396Z,10.81
2019-05-01T00:17:08.315Z,10.86
2019-05-01T00:18:08.237Z,10.75
2019-05-01T00:19:08.148Z,10.71
2019-05-01T00:20:08.069Z,10.69
2019-05-01T00:21:07.985Z,10.74
2019-05-01T00:22:07.900Z,10.68
2019-05-01T00:23:07.819Z,10.69
2019-05-01T00:24:07.735Z,10.71
2019-05-01T00:25:07.654Z,10.68
2019-05-01T00:26:07.575Z,10.64
2019-05-01T00:27:07.489Z,10.61
2019-05-01T00:28:07.407Z,10.54
2019-05-01T00:29:07.323Z,10.59
2019-05-01T00:30:07.247Z,10.54
2019-05-01T00:31:07.159Z,10.44
2019-05-01T00:32:07.076Z,10.46
2019-05-01T00:33:06.998Z,10.49
2019-05-01T00:34:06.917Z,10.48
2019-05-01T00:35:06.833Z,10.35
2019-05-01T00:36:06.746Z,10.40
2019-05-01T00:37:06.666Z,10.41
2019-05-01T00:38:06.580Z,10.41
2019-05-01T00:39:06.498Z,10.37
2019-05-01T00:40:06.416Z,10.35
2019-05-01T00:41:06.333Z,10.26
2019-05-01T00:42:06.247Z,10.31
2019-05-01T00:43:06.171Z,10.23
2019-05-01T00:44:06.083Z,10.33
2019-05-01T00:45:06.004Z,10.20
2019-05-01T00:46:05.922Z,10.26
2019-05-01T00:47:05.843Z,10.23
2019-05-01T00:48:05.749Z,10.25
2019-05-01T00:49:05.671Z,10.10
2019-05-01T00:50:05.595Z,10.15
2019-05-01T00:51:05.504Z,10.05
2019-05-01T00:52:05.420Z,10.02
2019-05-01T00:53:05.342Z,10.04
2019-05-01T00:54:05.255Z,10.16
2019-05-01T00:55:05.173Z,10.13
2019-05-01T00:56:05.092Z,10.10
2019-05-01T00:57:05.006Z,10.10
2019-05-01T00:58:04.926Z,10.09
2019-05-01T00:59:04.842Z,10.09
2019-05-01T01:00:04.754Z,10.05
2019-05-01T01:01:04.677Z,10.01
2019-05-01T01:02:04.590Z,10.04
2019-05-01T01:03:04.512Z,9.94
2019-05-01T01:04:04.424Z,9.94
2019-05-01T01:05:04.342Z,9.95
2019-05-01T01:06:04.257Z,9.95
2019-05-01T01:07:04.172Z,10.01
2019-05-01T01:08:04.091Z,10.07
2019-05-01T01:09:04.008Z,10.01
2019-05-01T01:10:03.942Z,10.01
2019-05-01T01:11:03.841Z,10.02
2019-05-01T01:12:03.755Z,10.05
2019-05-01T01:13:03.677Z,9.91
2019-05-01T01:14:03.591Z,9.89
2019-05-01T01:15:03.522Z,10.05
2019-05-01T01:16:03.421Z,9.92
2019-05-01T01:17:03.338Z,9.99
2019-05-01T01:18:03.257Z,9.99
2019-05-01T01:19:03.176Z,9.99
2019-05-01T01:20:03.092Z,10.04
2019-05-01T01:21:03.007Z,10.02
2019-05-01T01:22:02.926Z,9.97
2019-05-01T01:23:02.841Z,9.94
2019-05-01T01:24:02.762Z,9.84
2019-05-01T01:25:02.688Z,9.86
2019-05-01T01:26:02.596Z,9.74
2019-05-01T01:27:02.511Z,9.65
2019-05-01T01:28:02.429Z,9.74
2019-05-01T01:29:02.342Z,9.64
2019-05-01T01:30:02.258Z,9.72
2019-05-01T01:31:02.173Z,9.73
2019-05-01T01:32:02.091Z,9.68
2019-05-01T01:33:02.010Z,9.74
2019-05-01T01:34:01.921Z,9.69
2019-05-01T01:35:01.841Z,9.74
2019-05-01T01:36:01.756Z,9.79
2019-05-01T01:37:01.672Z,9.69
2019-05-01T01:38:01.591Z,9.62
2019-05-01T01:39:01.505Z,9.66
2019-05-01T01:40:01.430Z,9.68
2019-05-01T01:41:01.341Z,9.66
2019-05-01T01:42:01.254Z,9.48
2019-05-01T01:43:01.171Z,9.50
2019-05-01T01:44:01.089Z,9.31
2019-05-01T01:45:01.004Z,9.39
2019-05-01T01:46:00.922Z,9.39
2019-05-01T01:47:00.838Z,9.40
2019-05-01T01:48:00.751Z,9.36
2019-05-01T01:49:00.670Z,9.32
2019-05-01T01:50:00.587Z,9.25
2019-05-01T01:51:00.506Z,9.16
2019-05-01T01:52:00.418Z,9.21
2019-05-01T01:53:00.334Z,9.11
2019-05-01T01:54:00.250Z,9.22
2019-05-01T01:55:00.169Z,9.14
2019-05-01T01:56:00.086Z,9.25
2019-05-01T01:57:00.008Z,9.19
2019-05-01T01:57:59.918Z,9.22
2019-05-01T01:58:59.836Z,9.18
2019-05-01T01:59:59.758Z,9.28
2019-05-01T02:01:09.347Z,9.36
2019-05-01T02:01:59.585Z,9.28
2019-05-01T02:02:59.498Z,9.36
2019-05-01T02:03:59.414Z,9.37
2019-05-01T02:04:59.333Z,9.36
2019-05-01T02:05:59.252Z,9.41
2019-05-01T02:06:59.166Z,9.32
2019-05-01T02:07:59.080Z,9.31
2019-05-01T02:08:58.999Z,9.31
2019-05-01T02:09:58.916Z,9.29
2019-05-01T02:10:58.832Z,9.25
2019-05-01T02:11:58.749Z,9.25
2019-05-01T02:12:58.664Z,9.28
2019-05-01T02:13:58.590Z,9.19
2019-05-01T02:14:58.499Z,9.25
2019-05-01T02:15:58.418Z,9.16
2019-05-01T02:16:58.329Z,9.18
2019-05-01T02:17:58.244Z,9.11
2019-05-01T02:18:58.162Z,9.02
2019-05-01T02:19:58.077Z,9.08
2019-05-01T02:20:57.998Z,9.06
2019-05-01T02:21:57.911Z,9.11
2019-05-01T02:22:57.826Z,9.10
2019-05-01T02:23:57.746Z,9.11
2019-05-01T02:24:57.665Z,9.02
2019-05-01T02:25:57.576Z,9.04
2019-05-01T02:26:57.494Z,8.95
2019-05-01T02:27:57.407Z,8.95
2019-05-01T02:28:57.327Z,8.91
2019-05-01T02:29:57.241Z,8.89
2019-05-01T02:30:57.160Z,8.92
2019-05-01T02:31:57.073Z,8.91
2019-05-01T02:32:56.990Z,8.95
2019-05-01T02:33:56.909Z,9.00
2019-05-01T02:34:56.825Z,8.91
2019-05-01T02:35:56.739Z,8.82
2019-05-01T02:36:56.652Z,8.76
2019-05-01T02:37:56.573Z,8.79
2019-05-01T02:38:56.488Z,8.70
2019-05-01T02:39:56.414Z,8.71
2019-05-01T02:40:56.324Z,8.74
2019-05-01T02:41:56.237Z,8.67
2019-05-01T02:42:56.157Z,8.73
2019-05-01T02:43:56.066Z,8.70
2019-05-01T02:44:55.986Z,8.63
2019-05-01T02:45:55.899Z,8.67
2019-05-01T02:46:55.816Z,8.71
2019-05-01T02:47:55.731Z,8.71
2019-05-01T02:48:55.649Z,8.56
2019-05-01T02:49:55.566Z,8.53
2019-05-01T02:50:55.478Z,8.49
2019-05-01T02:51:55.392Z,8.51
2019-05-01T02:52:55.310Z,8.46
2019-05-01T02:53:55.224Z,8.42
2019-05-01T02:54:55.139Z,8.31
2019-05-01T02:55:55.053Z,8.36
2019-05-01T02:56:54.975Z,8.33
2019-05-01T02:57:54.898Z,8.37
2019-05-01T02:58:54.804Z,8.31
2019-05-01T02:59:54.716Z,8.33
2019-05-01T03:00:54.631Z,8.34
2019-05-01T03:01:54.553Z,8.34
2019-05-01T03:02:54.461Z,8.37
2019-05-01T03:03:54.375Z,8.36
2019-05-01T03:04:54.295Z,8.44
2019-05-01T03:05:54.210Z,8.41
2019-05-01T03:06:54.129Z,8.44
2019-05-01T03:07:54.040Z,8.49
2019-05-01T03:08:53.953Z,8.48
2019-05-01T03:09:53.872Z,8.55
2019-05-01T03:10:53.801Z,8.48
2019-05-01T03:11:53.699Z,8.48
2019-05-01T03:12:53.622Z,8.46
2019-05-01T03:13:53.534Z,8.46
2019-05-01T03:14:53.453Z,8.46
2019-05-01T03:15:53.364Z,8.45
2019-05-01T03:16:53.289Z,8.38
2019-05-01T03:17:53.200Z,8.46
2019-05-01T03:18:53.115Z,8.44
2019-05-01T03:19:53.024Z,8.44
2019-05-01T03:20:52.940Z,8.36
2019-05-01T03:21:52.863Z,8.36
2019-05-01T03:22:52.775Z,8.34
2019-05-01T03:23:52.682Z,8.42
2019-05-01T03:24:52.620Z,8.44
2019-05-01T03:25:52.518Z,8.41
2019-05-01T03:26:52.434Z,8.30
2019-05-01T03:27:52.349Z,8.30
2019-05-01T03:28:52.266Z,8.45
2019-05-01T03:29:52.177Z,8.38
2019-05-01T03:30:52.108Z,8.51
2019-05-01T03:32:14.037Z,8.45
2019-05-01T03:32:51.929Z,8.45
2019-05-01T03:33:51.861Z,8.46
2019-05-01T03:34:53.194Z,8.48
2019-05-01T03:35:51.677Z,8.48
2019-05-01T03:36:51.591Z,8.48
2019-05-01T03:37:51.509Z,8.52
2019-05-01T03:38:51.421Z,8.51
2019-05-01T03:39:51.338Z,8.45
2019-05-01T03:40:51.252Z,8.48
2019-05-01T03:41:51.166Z,8.30
2019-05-01T03:42:51.084Z,8.44
2019-05-01T03:43:50.999Z,8.37
2019-05-01T03:44:50.912Z,8.28
2019-05-01T03:45:50.830Z,8.31
2019-05-01T03:46:50.751Z,8.33
2019-05-01T03:47:50.668Z,8.30
2019-05-01T03:48:50.579Z,8.28
2019-05-01T03:49:50.494Z,8.27
2019-05-01T03:50:50.409Z,8.28
2019-05-01T03:51:50.325Z,8.24
2019-05-01T03:52:50.239Z,8.20
2019-05-01T03:53:50.164Z,8.20
2019-05-01T03:54:50.070Z,8.30
2019-05-01T03:55:49.992Z,8.26
2019-05-01T03:56:49.901Z,8.13
2019-05-01T03:57:49.816Z,8.15
2019-05-01T03:58:49.734Z,8.24
2019-05-01T03:59:49.649Z,8.10
2019-05-01T04:00:49.563Z,8.16
2019-05-01T04:01:49.477Z,8.18
2019-05-01T04:02:49.398Z,8.18
2019-05-01T04:03:49.305Z,8.13
2019-05-01T04:04:49.219Z,8.05
2019-05-01T04:05:49.141Z,8.00
2019-05-01T04:06:49.062Z,8.06
2019-05-01T04:07:48.974Z,8.16
2019-05-01T04:08:48.886Z,8.19
2019-05-01T04:09:48.805Z,8.13
2019-05-01T04:10:48.717Z,8.20
2019-05-01T04:11:48.632Z,8.19
2019-05-01T04:12:48.551Z,8.20
2019-05-01T04:13:48.465Z,8.13
2019-05-01T04:14:48.381Z,8.13
2019-05-01T04:15:48.294Z,8.12
2019-05-01T04:16:48.213Z,8.10
2019-05-01T04:17:48.132Z,8.15
2019-05-01T04:18:48.045Z,8.13
2019-05-01T04:19:47.956Z,8.08
2019-05-01T04:20:47.875Z,8.10
2019-05-01T04:21:47.790Z,8.13
2019-05-01T04:22:47.702Z,8.09
2019-05-01T04:23:47.621Z,8.13
2019-05-01T04:24:47.533Z,8.05
2019-05-01T04:25:47.451Z,7.97
2019-05-01T04:26:47.362Z,8.01
2019-05-01T04:27:47.287Z,8.03
2019-05-01T04:28:47.201Z,8.12
2019-05-01T04:29:47.119Z,8.08
2019-05-01T04:30:47.027Z,8.00
2019-05-01T04:31:46.943Z,8.00
2019-05-01T04:32:52.747Z,8.00
2019-05-01T04:33:46.769Z,7.79
2019-05-01T04:34:46.686Z,7.85
2019-05-01T04:35:46.603Z,7.95
2019-05-01T04:36:46.533Z,7.94
2019-05-01T04:37:46.432Z,7.93
2019-05-01T04:38:46.357Z,7.95
2019-05-01T04:39:46.262Z,7.98
2019-05-01T04:40:46.181Z,7.94
2019-05-01T04:41:46.099Z,7.90
2019-05-01T04:42:46.014Z,7.93
2019-05-01T04:43:45.933Z,7.90
2019-05-01T04:44:45.841Z,7.90
2019-05-01T04:45:45.760Z,8.01
2019-05-01T04:46:45.671Z,8.01
2019-05-01T04:47:45.590Z,8.01
2019-05-01T04:48:45.500Z,8.06
2019-05-01T04:49:45.416Z,7.94
2019-05-01T04:50:45.335Z,7.97
2019-05-01T04:51:45.260Z,8.01
2019-05-01T04:52:45.161Z,7.97
2019-05-01T04:53:45.077Z,7.87
2019-05-01T04:54:44.994Z,7.90
2019-05-01T04:55:44.909Z,8.01
2019-05-01T04:56:44.825Z,7.97
2019-05-01T04:57:44.743Z,7.94
2019-05-01T04:58:44.658Z,7.94
2019-05-01T04:59:44.578Z,7.95
2019-05-01T05:00:44.489Z,7.91
2019-05-01T05:01:44.409Z,8.05
2019-05-01T05:02:44.325Z,8.12
2019-05-01T05:03:44.235Z,7.94
2019-05-01T05:04:44.152Z,8.03
2019-05-01T05:05:44.069Z,8.03
2019-05-01T05:06:43.982Z,8.05
2019-05-01T05:07:43.897Z,8.05
2019-05-01T05:08:43.814Z,8.10
2019-05-01T05:09:43.733Z,8.16
2019-05-01T05:10:43.645Z,8.16
2019-05-01T05:11:43.560Z,8.15
2019-05-01T05:12:43.475Z,8.24
2019-05-01T05:13:43.393Z,8.13
2019-05-01T05:14:43.312Z,8.28
2019-05-01T05:15:43.224Z,8.26
2019-05-01T05:16:43.139Z,8.26
2019-05-01T05:17:43.061Z,8.23
2019-05-01T05:18:42.975Z,8.30
2019-05-01T05:19:42.889Z,8.34
2019-05-01T05:20:42.805Z,8.26
2019-05-01T05:21:42.715Z,8.24
2019-05-01T05:22:42.636Z,8.27
2019-05-01T05:23:42.553Z,8.31
2019-05-01T05:24:50.127Z,8.28
2019-05-01T05:26:46.789Z,8.41
2019-05-01T05:27:46.734Z,8.34
2019-05-01T05:29:50.974Z,8.44
2019-05-01T05:30:50.872Z,8.52
2019-05-01T05:32:55.171Z,8.64
2019-05-01T05:33:55.067Z,8.74
2019-05-01T05:35:48.309Z,8.70
2019-05-01T05:36:48.212Z,8.70
2019-05-01T05:38:52.514Z,8.76
2019-05-01T05:39:52.425Z,8.81
2019-05-01T05:41:56.726Z,8.82
2019-05-01T05:42:56.635Z,8.74
2019-05-01T05:45:00.941Z,8.82
2019-05-01T05:46:00.835Z,8.78
2019-05-01T05:48:05.165Z,8.92
2019-05-01T05:49:05.041Z,8.92
2019-05-01T05:51:09.351Z,8.95
2019-05-01T05:52:09.246Z,8.92
2019-05-01T05:54:13.556Z,9.06
2019-05-01T05:55:13.457Z,9.00
2019-05-01T05:57:17.762Z,9.04
2019-05-01T05:58:17.663Z,9.04
2019-05-01T06:00:21.967Z,9.13
2019-05-01T06:01:21.871Z,9.06
2019-05-01T06:03:31.309Z,9.19
2019-05-01T06:04:26.075Z,9.26
2019-05-01T06:06:30.369Z,9.22
2019-05-01T06:07:30.280Z,9.25
2019-05-01T06:09:34.588Z,9.28
2019-05-01T06:10:34.485Z,9.37
2019-05-01T06:12:41.617Z,9.44
2019-05-01T06:13:38.684Z,9.37
2019-05-01T06:15:31.924Z,9.54
2019-05-01T06:16:31.823Z,9.44
2019-05-01T06:18:39.324Z,9.47
2019-05-01T06:19:37.023Z,9.51
2019-05-01T06:21:41.326Z,9.65
2019-05-01T06:22:45.195Z,9.59
2019-05-01T06:24:45.535Z,9.65
2019-05-01T06:25:45.431Z,9.64
2019-05-01T06:27:50.467Z,9.77
2019-05-01T06:28:49.632Z,9.80
2019-05-01T06:30:53.935Z,9.91
2019-05-01T06:31:58.346Z,9.91
2019-05-01T06:33:58.159Z,9.94
2019-05-01T06:34:58.476Z,9.99
2019-05-01T06:37:02.375Z,9.99
2019-05-01T06:38:02.449Z,9.99
2019-05-01T06:40:06.603Z,9.99
2019-05-01T06:41:06.489Z,10.04
2019-05-01T06:43:10.787Z,10.04
2019-05-01T06:44:10.703Z,10.05
2019-05-01T06:46:15.001Z,10.04
2019-05-01T06:47:14.909Z,10.04
2019-05-01T06:49:19.213Z,9.98
2019-05-01T06:50:19.117Z,10.01
2019-05-01T06:52:24.831Z,10.05
2019-05-01T06:53:23.338Z,10.16
2019-05-01T06:55:16.593Z,10.22
2019-05-01T06:56:16.488Z,10.20
2019-05-01T06:58:21.868Z,10.34
2019-05-01T06:59:20.689Z,10.33
2019-05-01T07:01:24.997Z,10.37
2019-05-01T07:02:24.889Z,10.35
2019-05-01T07:04:32.418Z,10.31
2019-05-01T07:05:29.113Z,10.44
2019-05-01T07:07:33.422Z,10.42
2019-05-01T07:08:34.216Z,10.33
2019-05-01T07:10:44.263Z,10.41
2019-05-01T07:11:37.555Z,10.44
2019-05-01T07:13:41.811Z,10.57
2019-05-01T07:14:41.727Z,10.56
2019-05-01T07:16:47.043Z,10.67
2019-05-01T07:17:47.807Z,10.63
2019-05-01T07:19:51.376Z,10.64
2019-05-01T07:20:52.798Z,10.69
2019-05-01T07:21:51.070Z,10.79
2019-05-01T07:22:50.989Z,10.74
2019-05-01T07:23:52.255Z,10.76
2019-05-01T07:24:50.828Z,10.84
2019-05-01T07:25:50.745Z,10.81
2019-05-01T07:26:50.663Z,10.79
2019-05-01T07:27:53.994Z,10.87
2019-05-01T07:28:50.496Z,10.84
2019-05-01T07:29:50.419Z,10.89
2019-05-01T07:30:54.790Z,10.81
2019-05-01T07:31:50.248Z,10.84
2019-05-01T07:32:50.166Z,10.87
2019-05-01T07:33:51.263Z,10.89
2019-05-01T07:34:50.011Z,10.94
2019-05-01T07:35:49.930Z,10.94
2019-05-01T07:36:50.236Z,10.94
2019-05-01T07:37:49.776Z,10.96
2019-05-01T07:38:49.681Z,11.11
2019-05-01T07:39:51.461Z,11.05
2019-05-01T07:40:49.520Z,11.08
2019-05-01T07:41:49.446Z,11.12
2019-05-01T07:42:49.440Z,11.22
2019-05-01T07:43:49.276Z,11.18
2019-05-01T07:44:49.192Z,11.22
2019-05-01T07:45:49.117Z,11.18
2019-05-01T07:46:53.975Z,11.29
2019-05-01T07:47:48.953Z,11.29
2019-05-01T07:48:48.875Z,11.25
2019-05-01T07:49:52.726Z,11.27
2019-05-01T07:50:48.707Z,11.23
2019-05-01T07:51:48.629Z,11.25
2019-05-01T07:52:52.254Z,11.32
2019-05-01T07:53:48.458Z,11.33
2019-05-01T07:54:48.382Z,11.33
2019-05-01T07:55:48.588Z,11.45
2019-05-01T07:56:48.221Z,11.44
2019-05-01T07:57:48.154Z,11.48
2019-05-01T07:58:51.937Z,11.43
2019-05-01T07:59:47.979Z,11.52
2019-05-01T08:00:47.894Z,11.54
2019-05-01T08:01:49.915Z,11.51
2019-05-01T08:02:47.731Z,11.52
2019-05-01T08:03:47.650Z,11.54
2019-05-01T08:04:47.569Z,11.60
2019-05-01T08:05:47.532Z,11.70
2019-05-01T08:06:47.428Z,11.75
2019-05-01T08:07:47.332Z,11.81
2019-05-01T08:08:47.253Z,11.75
2019-05-01T08:09:50.245Z,11.72
2019-05-01T08:10:47.091Z,11.87
2019-05-01T08:11:47.007Z,11.95
2019-05-01T08:12:46.922Z,11.94
2019-05-01T08:13:46.847Z,11.95
2019-05-01T08:14:47.850Z,11.83
2019-05-01T08:15:46.685Z,11.86
2019-05-01T08:16:46.607Z,11.97
2019-05-01T08:17:48.749Z,11.99
2019-05-01T08:18:46.453Z,11.97
2019-05-01T08:19:46.362Z,11.91
2019-05-01T08:20:50.342Z,11.99
2019-05-01T08:21:46.206Z,11.97
2019-05-01T08:22:46.128Z,11.99
2019-05-01T08:23:47.191Z,11.95
2019-05-01T08:24:45.966Z,12.00
2019-05-01T08:25:45.887Z,11.94
2019-05-01T08:26:45.971Z,12.02
2019-05-01T08:27:45.728Z,12.02
2019-05-01T08:28:45.642Z,12.12
2019-05-01T08:29:45.565Z,12.15
2019-05-01T08:30:48.070Z,12.10
2019-05-01T08:31:45.399Z,12.15
2019-05-01T08:32:45.326Z,12.22
2019-05-01T08:33:49.866Z,12.20
2019-05-01T08:34:49.017Z,12.24
2019-05-01T08:35:45.086Z,12.22
2019-05-01T08:36:47.205Z,12.24
2019-05-01T08:37:44.918Z,12.27
2019-05-01T08:38:44.844Z,12.28
2019-05-01T08:39:45.882Z,12.29
2019-05-01T08:40:44.686Z,12.28
2019-05-01T08:41:44.602Z,12.37
2019-05-01T08:42:44.525Z,12.39
2019-05-01T08:43:44.445Z,12.39
2019-05-01T08:44:44.364Z,12.61
2019-05-01T08:45:44.281Z,12.53
2019-05-01T08:46:46.924Z,12.58
2019-05-01T08:47:44.121Z,12.65
2019-05-01T08:48:44.044Z,12.61
2019-05-01T08:49:49.472Z,12.72
2019-05-01T08:50:43.885Z,12.72
2019-05-01T08:51:43.804Z,12.78
2019-05-01T08:52:47.516Z,12.83
2019-05-01T08:53:43.637Z,12.87
2019-05-01T08:54:43.562Z,12.85
2019-05-01T08:55:45.034Z,12.87
2019-05-01T08:56:43.736Z,12.91
2019-05-01T08:57:43.326Z,12.95
2019-05-01T08:58:44.843Z,12.87
2019-05-01T08:59:43.160Z,12.97
2019-05-01T09:00:43.084Z,13.12
2019-05-01T09:01:45.760Z,13.15
2019-05-01T09:02:43.479Z,13.11
2019-05-01T09:03:42.844Z,13.16
2019-05-01T09:04:42.764Z,13.19
2019-05-01T09:05:42.688Z,13.22
2019-05-01T09:06:43.789Z,13.25
2019-05-01T09:07:42.629Z,13.19
2019-05-01T09:08:42.447Z,13.22
2019-05-01T09:09:45.490Z,13.22
2019-05-01T09:10:42.290Z,13.25
2019-05-01T09:11:42.226Z,13.25
2019-05-01T09:12:42.619Z,13.30
2019-05-01T09:13:42.049Z,13.22
2019-05-01T09:14:41.974Z,13.27
2019-05-01T09:15:43.823Z,13.25
2019-05-01T09:16:41.822Z,13.27
2019-05-01T09:19:13.714Z,13.47
2019-05-01T09:20:16.447Z,13.59
2019-05-01T09:22:17.951Z,13.72
2019-05-01T09:23:17.845Z,13.78
2019-05-01T09:25:11.089Z,13.77
2019-05-01T09:26:14.659Z,13.90
2019-05-01T09:28:15.393Z,13.99
2019-05-01T09:29:16.076Z,13.96
2019-05-01T09:30:15.184Z,13.99
2019-05-01T09:31:15.100Z,13.96
2019-05-01T09:32:15.041Z,13.97
2019-05-01T09:33:14.942Z,13.99
2019-05-01T09:34:19.140Z,13.95
2019-05-01T09:35:16.103Z,13.90
2019-05-01T09:36:14.708Z,13.93
2019-05-01T09:37:14.635Z,13.96
2019-05-01T09:38:14.578Z,13.96
2019-05-01T09:39:14.517Z,13.99
2019-05-01T09:40:14.430Z,14.00
2019-05-01T09:41:14.323Z,13.97
2019-05-01T09:42:22.958Z,13.96
2019-05-01T09:43:14.165Z,13.93
2019-05-01T09:44:14.090Z,13.99
2019-05-01T09:45:14.008Z,14.03
2019-05-01T09:46:13.931Z,13.96
2019-05-01T09:47:13.852Z,13.95
2019-05-01T09:48:13.779Z,13.97
2019-05-01T09:49:14.224Z,13.90
2019-05-01T09:50:13.648Z,13.96
2019-05-01T09:51:13.544Z,13.99
2019-05-01T09:52:13.483Z,13.92
2019-05-01T09:55:12.746Z,13.90
2019-05-01T09:55:58.337Z,13.89
2019-05-01T09:58:09.933Z,13.97
2019-05-01T09:59:12.632Z,13.89
2019-05-01T10:01:18.449Z,13.90
2019-05-01T10:02:18.387Z,13.92
2019-05-01T10:04:29.638Z,13.97
2019-05-01T10:05:29.071Z,14.05
2019-05-01T10:06:26.382Z,14.07
2019-05-01T10:07:28.894Z,14.15
2019-05-01T10:08:24.775Z,14.18
2019-05-01T10:09:26.796Z,14.25
2019-05-01T10:10:24.871Z,14.15
2019-05-01T10:11:24.539Z,14.12
2019-05-01T10:12:24.470Z,14.12
2019-05-01T10:13:24.385Z,14.10
2019-05-01T10:14:24.304Z,14.14
2019-05-01T10:15:24.240Z,14.11
2019-05-01T10:16:24.211Z,14.11
2019-05-01T10:17:24.202Z,14.10
2019-05-01T10:18:24.165Z,14.11
2019-05-01T10:19:23.981Z,14.10
2019-05-01T10:20:23.909Z,14.05
2019-05-01T10:21:27.321Z,14.08
2019-05-01T10:22:23.904Z,14.00
2019-05-01T10:23:23.844Z,14.04
2019-05-01T10:24:23.549Z,14.03
2019-05-01T10:25:23.464Z,14.07
2019-05-01T10:26:24.043Z,14.10
2019-05-01T10:27:23.289Z,14.05
2019-05-01T10:28:23.206Z,14.07
2019-05-01T10:29:25.894Z,14.04
2019-05-01T10:30:23.069Z,14.08
2019-05-01T10:31:22.973Z,14.08
2019-05-01T10:32:23.207Z,14.04
2019-05-01T10:33:22.819Z,14.08
2019-05-01T10:34:22.737Z,14.04
2019-05-01T10:35:22.661Z,14.00
2019-05-01T10:36:22.579Z,14.00
2019-05-01T10:37:23.692Z,14.08
2019-05-01T10:38:22.428Z,14.00
2019-05-01T10:39:22.347Z,14.08
2019-05-01T10:40:22.477Z,13.96
2019-05-01T10:41:22.193Z,14.04
2019-05-01T10:42:22.111Z,14.12
2019-05-01T10:43:22.416Z,14.30
2019-05-01T10:44:21.991Z,14.35
2019-05-01T10:45:21.969Z,14.48
2019-05-01T10:46:21.798Z,14.55
2019-05-01T10:47:21.723Z,14.48
2019-05-01T10:48:21.645Z,14.66
2019-05-01T10:49:21.564Z,14.70
2019-05-01T10:50:21.489Z,14.78
2019-05-01T10:51:21.407Z,14.70
2019-05-01T10:52:21.336Z,14.77
2019-05-01T10:53:21.253Z,14.79
2019-05-01T10:54:21.178Z,14.86
2019-05-01T10:55:21.103Z,14.79
2019-05-01T10:56:21.096Z,14.96
2019-05-01T10:57:20.940Z,14.94
2019-05-01T10:58:20.870Z,14.94
2019-05-01T10:59:20.783Z,14.97
2019-05-01T11:00:20.713Z,14.97
2019-05-01T11:01:20.631Z,14.85
2019-05-01T11:02:20.563Z,14.99
2019-05-01T11:03:20.477Z,14.96
2019-05-01T11:04:20.419Z,14.94
2019-05-01T11:05:31.500Z,14.91
2019-05-01T11:07:28.318Z,14.89
2019-05-01T11:08:28.065Z,14.88
2019-05-01T11:10:32.366Z,14.89
2019-05-01T11:11:32.281Z,15.04
2019-05-01T11:13:37.600Z,14.99
2019-05-01T11:14:37.510Z,15.03
2019-05-01T11:16:41.824Z,14.91
2019-05-01T11:17:41.744Z,14.97
2019-05-01T11:18:41.668Z,14.91
2019-05-01T11:19:41.591Z,15.00
2019-05-01T11:20:41.510Z,14.88
2019-05-01T11:21:41.435Z,14.89
2019-05-01T11:22:41.356Z,14.96
2019-05-01T11:23:41.278Z,14.86
2019-05-01T11:24:41.199Z,14.86
2019-05-01T11:25:41.121Z,14.81
2019-05-01T11:26:41.045Z,14.79
2019-05-01T11:27:40.966Z,14.73
2019-05-01T11:28:40.888Z,14.65
2019-05-01T11:29:40.812Z,14.65
2019-05-01T11:30:40.732Z,14.63
2019-05-01T11:31:40.657Z,14.62
2019-05-01T11:32:40.578Z,14.66
2019-05-01T11:33:40.496Z,14.63
2019-05-01T11:34:40.423Z,14.63
2019-05-01T11:35:40.347Z,14.59
2019-05-01T11:36:40.267Z,14.54
2019-05-01T11:37:40.186Z,14.55
2019-05-01T11:38:41.821Z,14.53
2019-05-01T11:39:40.940Z,14.55
2019-05-01T11:40:39.964Z,14.50
2019-05-01T11:41:39.916Z,14.48
2019-05-01T11:42:39.910Z,14.44
2019-05-01T11:43:39.717Z,14.47
2019-05-01T11:44:39.678Z,14.45
2019-05-01T11:45:39.560Z,14.47
2019-05-01T11:46:39.478Z,14.48
2019-05-01T11:47:39.412Z,14.47
2019-05-01T11:48:39.349Z,14.48
2019-05-01T11:49:39.252Z,14.41
2019-05-01T11:50:39.207Z,14.45
2019-05-01T11:51:39.117Z,14.47
2019-05-01T11:52:39.013Z,14.44
2019-05-01T11:53:38.934Z,14.47
2019-05-01T11:54:38.860Z,14.40
2019-05-01T11:55:38.784Z,14.40
2019-05-01T11:56:38.701Z,14.33
2019-05-01T11:57:38.624Z,14.43
2019-05-01T11:58:38.598Z,14.50
2019-05-01T11:59:38.470Z,14.32
2019-05-01T12:00:38.391Z,14.45
2019-05-01T12:01:38.312Z,14.50
2019-05-01T12:02:38.231Z,14.50
2019-05-01T12:03:38.179Z,14.48
2019-05-01T12:04:38.092Z,14.43
2019-05-01T12:05:38.003Z,14.48
2019-05-01T12:06:37.922Z,14.53
2019-05-01T12:07:37.865Z,14.50
2019-05-01T12:08:37.765Z,14.55
2019-05-01T12:09:37.696Z,14.59
2019-05-01T12:10:37.610Z,14.51
2019-05-01T12:11:45.233Z,14.59
2019-05-01T12:13:43.949Z,14.68
2019-05-01T12:14:41.748Z,14.73
2019-05-01T12:16:45.553Z,14.79
2019-05-01T12:17:45.471Z,14.82
2019-05-01T12:18:45.430Z,14.81
2019-05-01T12:19:45.322Z,14.79
2019-05-01T12:20:45.243Z,14.85
2019-05-01T12:21:45.160Z,14.84
2019-05-01T12:22:47.897Z,14.88
2019-05-01T12:23:45.009Z,14.91
2019-05-01T12:24:44.975Z,14.94
2019-05-01T12:25:44.850Z,14.96
2019-05-01T12:26:44.776Z,15.00
2019-05-01T12:27:44.698Z,15.10
2019-05-01T12:28:44.621Z,15.18
2019-05-01T12:29:44.542Z,15.10
2019-05-01T12:30:44.464Z,15.09
2019-05-01T12:31:44.395Z,15.09
2019-05-01T12:32:44.312Z,15.18
2019-05-01T12:33:44.244Z,15.27
2019-05-01T12:34:44.161Z,15.24
2019-05-01T12:35:44.081Z,15.24
2019-05-01T12:36:44.003Z,15.36
2019-05-01T12:37:43.924Z,15.29
2019-05-01T12:38:43.852Z,15.29
2019-05-01T12:39:43.775Z,15.29
2019-05-01T12:40:43.691Z,15.25
2019-05-01T12:41:43.617Z,15.28
2019-05-01T12:42:43.547Z,15.31
2019-05-01T12:43:43.467Z,15.24
2019-05-01T12:44:43.389Z,15.22
2019-05-01T12:45:43.312Z,15.39
2019-05-01T12:46:43.236Z,15.33
2019-05-01T12:47:43.160Z,15.25
2019-05-01T12:48:43.095Z,15.37
2019-05-01T12:49:43.004Z,15.39
2019-05-01T12:50:42.932Z,15.46
2019-05-01T12:51:42.855Z,15.44
2019-05-01T12:52:42.776Z,15.51
2019-05-01T12:53:42.702Z,15.51
2019-05-01T12:54:42.634Z,15.54
2019-05-01T12:55:42.546Z,15.54
2019-05-01T12:56:42.471Z,15.52
2019-05-01T12:57:42.393Z,15.49
2019-05-01T12:58:42.320Z,15.54
2019-05-01T12:59:42.248Z,15.55
2019-05-01T13:00:42.167Z,15.59
2019-05-01T13:01:42.085Z,15.51
2019-05-01T13:02:42.011Z,15.67
2019-05-01T13:03:41.934Z,15.67
2019-05-01T13:04:41.859Z,15.68
2019-05-01T13:05:41.784Z,15.65
2019-05-01T13:06:49.226Z,15.67
2019-05-01T13:07:41.629Z,15.72
2019-05-01T13:08:41.554Z,15.77
2019-05-01T13:09:41.476Z,15.76
2019-05-01T13:10:41.400Z,15.88
2019-05-01T13:11:41.324Z,15.76
2019-05-01T13:12:41.248Z,15.91
2019-05-01T13:13:41.169Z,15.86
2019-05-01T13:14:41.095Z,16.01
2019-05-01T13:15:41.020Z,16.09
2019-05-01T13:16:40.943Z,16.28
2019-05-01T13:17:40.876Z,16.24
2019-05-01T13:18:40.796Z,16.28
2019-05-01T13:19:40.718Z,16.46
2019-05-01T13:20:40.640Z,16.54
2019-05-01T13:21:40.565Z,16.60
2019-05-01T13:22:40.492Z,16.84
2019-05-01T13:23:40.517Z,16.91
2019-05-01T13:24:40.344Z,17.01
2019-05-01T13:25:40.269Z,17.04
2019-05-01T13:26:40.193Z,17.12
2019-05-01T13:27:40.129Z,17.14
2019-05-01T13:28:40.046Z,17.27
2019-05-01T13:29:39.969Z,17.36
2019-05-01T13:30:39.893Z,17.48
2019-05-01T13:31:39.825Z,17.63
2019-05-01T13:32:39.751Z,17.65
2019-05-01T13:33:39.677Z,17.68
2019-05-01T13:34:39.601Z,17.52
2019-05-01T13:35:39.548Z,17.54
2019-05-01T13:36:39.454Z,17.42
2019-05-01T13:37:39.408Z,17.36
2019-05-01T13:38:39.311Z,17.42
2019-05-01T13:39:39.236Z,17.39
2019-05-01T13:40:39.154Z,17.39
2019-05-01T13:41:39.090Z,17.38
2019-05-01T13:42:39.015Z,17.39
2019-05-01T13:43:38.938Z,17.38
2019-05-01T13:44:38.866Z,17.33
2019-05-01T13:45:38.792Z,17.33
2019-05-01T13:46:38.725Z,17.31
2019-05-01T13:47:38.654Z,17.23
2019-05-01T13:48:38.573Z,17.19
2019-05-01T13:49:38.499Z,17.12
2019-05-01T13:50:38.423Z,17.06
2019-05-01T13:51:38.352Z,17.09
2019-05-01T13:52:38.275Z,17.06
2019-05-01T13:53:38.204Z,17.06
2019-05-01T13:54:38.127Z,17.06
2019-05-01T13:55:38.057Z,16.96
2019-05-01T13:56:37.981Z,16.96
2019-05-01T13:57:37.906Z,16.93